sensor_id;sensor_type;location;lat;lon;timestamp;P1;durP1;ratioP1;P2;durP2;ratioP2
28353;SDS011;15603;50.878;8.036;2023-04-06T00:01:04;12.02;;;4.43;;
28353;SDS011;15603;50.878;8.036;2023-04-06T00:03:31;11.90;;;4.72;;
28353;SDS011;15603;50.878;8.036;2023-04-06T00:05:58;18.05;;;4.57;;
28353;SDS011;15603;50.878;8.036;2023-04-06T00:08:25;8.52;;;3.90;;
28353;SDS011;15603;50.878;8.036;2023-04-06T00:10:53;9.50;;;4.22;;
28353;SDS011;15603;50.878;8.036;2023-04-06T00:13:20;12.27;;;4.05;;
28353;SDS011;15603;50.878;8.036;2023-04-06T00:15:47;12.73;;;4.32;;
28353;SDS011;15603;50.878;8.036;2023-04-06T00:18:14;12.45;;;4.13;;
28353;SDS011;15603;50.878;8.036;2023-04-06T00:20:41;13.52;;;4.45;;
28353;SDS011;15603;50.878;8.036;2023-04-06T00:23:08;8.80;;;4.15;;
28353;SDS011;15603;50.878;8.036;2023-04-06T00:25:36;16.70;;;5.00;;
28353;SDS011;15603;50.878;8.036;2023-04-06T00:28:03;8.23;;;3.95;;
28353;SDS011;15603;50.878;8.036;2023-04-06T00:30:30;9.27;;;3.78;;
28353;SDS011;15603;50.878;8.036;2023-04-06T00:32:57;12.38;;;4.28;;
28353;SDS011;15603;50.878;8.036;2023-04-06T00:35:27;8.98;;;3.58;;
28353;SDS011;15603;50.878;8.036;2023-04-06T00:37:54;16.40;;;4.47;;
28353;SDS011;15603;50.878;8.036;2023-04-06T00:40:21;10.18;;;4.05;;
28353;SDS011;15603;50.878;8.036;2023-04-06T00:42:48;9.80;;;3.45;;
28353;SDS011;15603;50.878;8.036;2023-04-06T00:45:16;8.73;;;3.45;;
28353;SDS011;15603;50.878;8.036;2023-04-06T00:47:43;10.15;;;3.47;;
28353;SDS011;15603;50.878;8.036;2023-04-06T00:50:13;8.35;;;3.50;;
28353;SDS011;15603;50.878;8.036;2023-04-06T00:52:40;10.52;;;3.03;;
28353;SDS011;15603;50.878;8.036;2023-04-06T00:55:09;8.35;;;3.33;;
28353;SDS011;15603;50.878;8.036;2023-04-06T00:57:40;8.95;;;3.75;;
28353;SDS011;15603;50.878;8.036;2023-04-06T01:00:08;10.60;;;3.75;;
28353;SDS011;15603;50.878;8.036;2023-04-06T01:02:37;15.73;;;3.63;;
28353;SDS011;15603;50.878;8.036;2023-04-06T01:05:04;10.82;;;3.88;;
28353;SDS011;15603;50.878;8.036;2023-04-06T01:07:43;7.50;;;3.53;;
28353;SDS011;15603;50.878;8.036;2023-04-06T01:10:22;14.75;;;4.70;;
28353;SDS011;15603;50.878;8.036;2023-04-06T01:13:00;8.48;;;4.40;;
28353;SDS011;15603;50.878;8.036;2023-04-06T01:15:47;13.57;;;4.65;;
28353;SDS011;15603;50.878;8.036;2023-04-06T01:18:24;10.95;;;3.67;;
28353;SDS011;15603;50.878;8.036;2023-04-06T01:20:59;11.68;;;4.28;;
28353;SDS011;15603;50.878;8.036;2023-04-06T01:23:27;11.00;;;4.45;;
28353;SDS011;15603;50.878;8.036;2023-04-06T01:25:54;10.40;;;3.85;;
28353;SDS011;15603;50.878;8.036;2023-04-06T01:28:21;12.10;;;4.70;;
28353;SDS011;15603;50.878;8.036;2023-04-06T01:31:11;15.85;;;4.47;;
28353;SDS011;15603;50.878;8.036;2023-04-06T01:33:45;8.38;;;4.05;;
28353;SDS011;15603;50.878;8.036;2023-04-06T01:36:18;6.75;;;3.25;;
28353;SDS011;15603;50.878;8.036;2023-04-06T01:38:52;9.35;;;3.85;;
28353;SDS011;15603;50.878;8.036;2023-04-06T01:41:24;12.68;;;3.85;;
28353;SDS011;15603;50.878;8.036;2023-04-06T01:43:52;11.48;;;3.50;;
28353;SDS011;15603;50.878;8.036;2023-04-06T01:46:25;10.60;;;3.83;;
28353;SDS011;15603;50.878;8.036;2023-04-06T01:48:52;8.25;;;3.53;;
28353;SDS011;15603;50.878;8.036;2023-04-06T01:51:28;8.45;;;4.03;;
28353;SDS011;15603;50.878;8.036;2023-04-06T01:54:00;10.00;;;3.60;;
28353;SDS011;15603;50.878;8.036;2023-04-06T01:56:46;7.63;;;3.13;;
28353;SDS011;15603;50.878;8.036;2023-04-06T01:59:25;6.28;;;3.38;;
28353;SDS011;15603;50.878;8.036;2023-04-06T02:01:52;12.18;;;4.20;;
28353;SDS011;15603;50.878;8.036;2023-04-06T02:04:20;13.93;;;3.67;;
28353;SDS011;15603;50.878;8.036;2023-04-06T02:09:22;8.50;;;3.10;;
28353;SDS011;15603;50.878;8.036;2023-04-06T02:11:49;9.05;;;3.53;;
28353;SDS011;15603;50.878;8.036;2023-04-06T02:14:16;6.32;;;3.03;;
28353;SDS011;15603;50.878;8.036;2023-04-06T02:16:49;9.00;;;2.90;;
28353;SDS011;15603;50.878;8.036;2023-04-06T02:19:17;12.93;;;3.63;;
28353;SDS011;15603;50.878;8.036;2023-04-06T02:21:44;10.93;;;3.88;;
28353;SDS011;15603;50.878;8.036;2023-04-06T02:24:11;7.30;;;3.60;;
28353;SDS011;15603;50.878;8.036;2023-04-06T02:26:38;8.45;;;3.70;;
28353;SDS011;15603;50.878;8.036;2023-04-06T02:29:05;7.97;;;3.30;;
28353;SDS011;15603;50.878;8.036;2023-04-06T02:31:33;9.05;;;3.90;;
28353;SDS011;15603;50.878;8.036;2023-04-06T02:34:01;15.48;;;3.67;;
28353;SDS011;15603;50.878;8.036;2023-04-06T02:36:30;11.68;;;4.20;;
28353;SDS011;15603;50.878;8.036;2023-04-06T02:38:57;10.38;;;3.47;;
28353;SDS011;15603;50.878;8.036;2023-04-06T02:41:24;10.27;;;3.70;;
28353;SDS011;15603;50.878;8.036;2023-04-06T02:43:51;10.10;;;4.10;;
28353;SDS011;15603;50.878;8.036;2023-04-06T02:46:33;14.43;;;3.95;;
28353;SDS011;15603;50.878;8.036;2023-04-06T02:49:00;8.43;;;3.47;;
28353;SDS011;15603;50.878;8.036;2023-04-06T02:51:30;8.27;;;3.40;;
28353;SDS011;15603;50.878;8.036;2023-04-06T02:54:07;14.95;;;4.07;;
28353;SDS011;15603;50.878;8.036;2023-04-06T02:56:34;9.88;;;3.58;;
28353;SDS011;15603;50.878;8.036;2023-04-06T02:59:01;9.02;;;3.60;;
28353;SDS011;15603;50.878;8.036;2023-04-06T03:01:31;8.15;;;3.03;;
28353;SDS011;15603;50.878;8.036;2023-04-06T03:04:02;6.60;;;3.38;;
28353;SDS011;15603;50.878;8.036;2023-04-06T03:06:30;8.63;;;3.70;;
28353;SDS011;15603;50.878;8.036;2023-04-06T03:09:06;9.82;;;4.00;;
28353;SDS011;15603;50.878;8.036;2023-04-06T03:11:33;6.60;;;3.08;;
28353;SDS011;15603;50.878;8.036;2023-04-06T03:14:01;8.73;;;3.50;;
28353;SDS011;15603;50.878;8.036;2023-04-06T03:16:28;15.60;;;4.07;;
28353;SDS011;15603;50.878;8.036;2023-04-06T03:18:55;7.75;;;4.38;;
28353;SDS011;15603;50.878;8.036;2023-04-06T03:21:23;12.70;;;4.38;;
28353;SDS011;15603;50.878;8.036;2023-04-06T03:23:51;11.25;;;4.07;;
28353;SDS011;15603;50.878;8.036;2023-04-06T03:26:19;10.80;;;4.15;;
28353;SDS011;15603;50.878;8.036;2023-04-06T03:28:46;11.68;;;4.38;;
28353;SDS011;15603;50.878;8.036;2023-04-06T03:31:14;10.70;;;4.80;;
28353;SDS011;15603;50.878;8.036;2023-04-06T03:33:58;17.40;;;4.68;;
28353;SDS011;15603;50.878;8.036;2023-04-06T03:36:30;15.20;;;6.18;;
28353;SDS011;15603;50.878;8.036;2023-04-06T03:38:58;16.42;;;4.57;;
28353;SDS011;15603;50.878;8.036;2023-04-06T03:41:25;12.70;;;5.18;;
28353;SDS011;15603;50.878;8.036;2023-04-06T03:44:13;13.15;;;5.22;;
28353;SDS011;15603;50.878;8.036;2023-04-06T03:46:40;12.60;;;4.50;;
28353;SDS011;15603;50.878;8.036;2023-04-06T03:49:07;14.07;;;4.75;;
28353;SDS011;15603;50.878;8.036;2023-04-06T03:51:35;27.40;;;5.78;;
28353;SDS011;15603;50.878;8.036;2023-04-06T03:54:02;15.77;;;5.40;;
28353;SDS011;15603;50.878;8.036;2023-04-06T03:56:29;22.38;;;6.18;;
28353;SDS011;15603;50.878;8.036;2023-04-06T03:58:56;16.52;;;6.22;;
28353;SDS011;15603;50.878;8.036;2023-04-06T04:01:23;26.73;;;10.07;;
28353;SDS011;15603;50.878;8.036;2023-04-06T04:03:51;24.88;;;8.25;;
28353;SDS011;15603;50.878;8.036;2023-04-06T04:06:20;32.75;;;9.57;;
28353;SDS011;15603;50.878;8.036;2023-04-06T04:08:47;32.72;;;11.50;;
28353;SDS011;15603;50.878;8.036;2023-04-06T04:11:14;41.42;;;12.65;;
28353;SDS011;15603;50.878;8.036;2023-04-06T04:13:43;38.60;;;13.55;;
28353;SDS011;15603;50.878;8.036;2023-04-06T04:16:10;33.10;;;13.60;;
28353;SDS011;15603;50.878;8.036;2023-04-06T04:18:37;39.53;;;12.65;;
28353;SDS011;15603;50.878;8.036;2023-04-06T04:21:05;42.60;;;13.50;;
28353;SDS011;15603;50.878;8.036;2023-04-06T04:23:33;43.22;;;13.30;;
28353;SDS011;15603;50.878;8.036;2023-04-06T04:26:03;37.15;;;12.02;;
28353;SDS011;15603;50.878;8.036;2023-04-06T04:28:30;28.58;;;10.30;;
28353;SDS011;15603;50.878;8.036;2023-04-06T04:30:57;22.90;;;9.95;;
28353;SDS011;15603;50.878;8.036;2023-04-06T04:33:24;24.45;;;8.43;;
28353;SDS011;15603;50.878;8.036;2023-04-06T04:35:55;28.60;;;8.90;;
28353;SDS011;15603;50.878;8.036;2023-04-06T04:38:25;20.08;;;7.25;;
28353;SDS011;15603;50.878;8.036;2023-04-06T04:40:54;18.30;;;7.35;;
28353;SDS011;15603;50.878;8.036;2023-04-06T04:43:21;17.85;;;6.53;;
28353;SDS011;15603;50.878;8.036;2023-04-06T04:45:49;23.25;;;7.18;;
28353;SDS011;15603;50.878;8.036;2023-04-06T04:48:26;19.45;;;7.47;;
28353;SDS011;15603;50.878;8.036;2023-04-06T04:50:58;25.63;;;6.25;;
28353;SDS011;15603;50.878;8.036;2023-04-06T04:53:30;19.45;;;6.50;;
28353;SDS011;15603;50.878;8.036;2023-04-06T04:56:05;16.10;;;6.47;;
28353;SDS011;15603;50.878;8.036;2023-04-06T04:58:32;20.70;;;6.45;;
28353;SDS011;15603;50.878;8.036;2023-04-06T05:01:00;16.25;;;6.88;;
28353;SDS011;15603;50.878;8.036;2023-04-06T05:03:27;22.33;;;6.10;;
28353;SDS011;15603;50.878;8.036;2023-04-06T05:06:04;29.20;;;10.25;;
28353;SDS011;15603;50.878;8.036;2023-04-06T05:08:35;24.02;;;8.32;;
28353;SDS011;15603;50.878;8.036;2023-04-06T05:11:02;29.73;;;8.73;;
28353;SDS011;15603;50.878;8.036;2023-04-06T05:13:33;68.25;;;11.27;;
28353;SDS011;15603;50.878;8.036;2023-04-06T05:16:06;35.88;;;8.27;;
28353;SDS011;15603;50.878;8.036;2023-04-06T05:18:34;36.78;;;8.40;;
28353;SDS011;15603;50.878;8.036;2023-04-06T05:21:03;29.15;;;7.10;;
28353;SDS011;15603;50.878;8.036;2023-04-06T05:23:39;29.83;;;7.75;;
28353;SDS011;15603;50.878;8.036;2023-04-06T05:26:06;29.40;;;7.00;;
28353;SDS011;15603;50.878;8.036;2023-04-06T05:28:33;18.25;;;6.95;;
28353;SDS011;15603;50.878;8.036;2023-04-06T05:31:02;17.90;;;7.72;;
28353;SDS011;15603;50.878;8.036;2023-04-06T05:33:36;19.58;;;7.38;;
28353;SDS011;15603;50.878;8.036;2023-04-06T05:36:07;33.28;;;8.68;;
28353;SDS011;15603;50.878;8.036;2023-04-06T05:38:39;27.90;;;8.05;;
28353;SDS011;15603;50.878;8.036;2023-04-06T05:41:26;19.02;;;7.07;;
28353;SDS011;15603;50.878;8.036;2023-04-06T05:43:53;21.20;;;7.05;;
28353;SDS011;15603;50.878;8.036;2023-04-06T05:46:22;23.13;;;7.60;;
28353;SDS011;15603;50.878;8.036;2023-04-06T05:48:50;18.20;;;6.95;;
28353;SDS011;15603;50.878;8.036;2023-04-06T05:51:21;26.63;;;7.70;;
28353;SDS011;15603;50.878;8.036;2023-04-06T05:53:48;19.70;;;7.88;;
28353;SDS011;15603;50.878;8.036;2023-04-06T05:56:15;20.42;;;7.63;;
28353;SDS011;15603;50.878;8.036;2023-04-06T05:58:43;17.85;;;7.38;;
28353;SDS011;15603;50.878;8.036;2023-04-06T06:01:13;19.02;;;7.20;;
28353;SDS011;15603;50.878;8.036;2023-04-06T06:03:44;25.38;;;7.50;;
28353;SDS011;15603;50.878;8.036;2023-04-06T06:06:12;25.90;;;7.35;;
28353;SDS011;15603;50.878;8.036;2023-04-06T06:08:50;24.45;;;6.38;;
28353;SDS011;15603;50.878;8.036;2023-04-06T06:11:18;16.58;;;6.00;;
28353;SDS011;15603;50.878;8.036;2023-04-06T06:13:47;21.90;;;7.30;;
28353;SDS011;15603;50.878;8.036;2023-04-06T06:16:14;15.30;;;6.97;;
28353;SDS011;15603;50.878;8.036;2023-04-06T06:18:45;14.55;;;6.72;;
28353;SDS011;15603;50.878;8.036;2023-04-06T06:21:12;35.33;;;6.95;;
28353;SDS011;15603;50.878;8.036;2023-04-06T06:23:41;20.30;;;8.40;;
28353;SDS011;15603;50.878;8.036;2023-04-06T06:26:13;23.05;;;7.13;;
28353;SDS011;15603;50.878;8.036;2023-04-06T06:28:40;26.83;;;7.15;;
28353;SDS011;15603;50.878;8.036;2023-04-06T06:31:08;25.67;;;7.15;;
28353;SDS011;15603;50.878;8.036;2023-04-06T06:33:36;22.58;;;7.13;;
28353;SDS011;15603;50.878;8.036;2023-04-06T06:36:03;31.40;;;6.07;;
28353;SDS011;15603;50.878;8.036;2023-04-06T06:38:30;18.50;;;6.22;;
28353;SDS011;15603;50.878;8.036;2023-04-06T06:40:57;19.63;;;7.43;;
28353;SDS011;15603;50.878;8.036;2023-04-06T06:43:28;16.88;;;6.40;;
28353;SDS011;15603;50.878;8.036;2023-04-06T06:45:59;21.08;;;6.35;;
28353;SDS011;15603;50.878;8.036;2023-04-06T06:48:26;27.38;;;6.50;;
28353;SDS011;15603;50.878;8.036;2023-04-06T06:50:53;17.92;;;6.18;;
28353;SDS011;15603;50.878;8.036;2023-04-06T06:53:20;27.20;;;6.40;;
28353;SDS011;15603;50.878;8.036;2023-04-06T06:55:48;27.67;;;6.57;;
28353;SDS011;15603;50.878;8.036;2023-04-06T06:58:18;19.58;;;6.65;;
28353;SDS011;15603;50.878;8.036;2023-04-06T07:00:50;18.33;;;6.78;;
28353;SDS011;15603;50.878;8.036;2023-04-06T07:03:17;28.38;;;7.93;;
28353;SDS011;15603;50.878;8.036;2023-04-06T07:05:48;22.15;;;6.53;;
28353;SDS011;15603;50.878;8.036;2023-04-06T07:08:20;13.82;;;5.30;;
28353;SDS011;15603;50.878;8.036;2023-04-06T07:10:49;21.42;;;5.53;;
28353;SDS011;15603;50.878;8.036;2023-04-06T07:13:19;17.17;;;5.22;;
28353;SDS011;15603;50.878;8.036;2023-04-06T07:15:53;13.40;;;5.40;;
28353;SDS011;15603;50.878;8.036;2023-04-06T07:18:20;25.67;;;6.43;;
28353;SDS011;15603;50.878;8.036;2023-04-06T07:20:48;17.30;;;5.05;;
28353;SDS011;15603;50.878;8.036;2023-04-06T07:23:16;16.27;;;5.38;;
28353;SDS011;15603;50.878;8.036;2023-04-06T07:25:44;10.77;;;5.25;;
28353;SDS011;15603;50.878;8.036;2023-04-06T07:28:11;13.52;;;5.93;;
28353;SDS011;15603;50.878;8.036;2023-04-06T07:30:39;16.13;;;5.85;;
28353;SDS011;15603;50.878;8.036;2023-04-06T07:33:08;15.43;;;5.78;;
28353;SDS011;15603;50.878;8.036;2023-04-06T07:35:36;14.27;;;5.00;;
28353;SDS011;15603;50.878;8.036;2023-04-06T07:38:05;11.40;;;4.57;;
28353;SDS011;15603;50.878;8.036;2023-04-06T07:40:33;11.23;;;3.90;;
28353;SDS011;15603;50.878;8.036;2023-04-06T07:43:00;15.25;;;4.78;;
28353;SDS011;15603;50.878;8.036;2023-04-06T07:45:28;13.30;;;4.18;;
28353;SDS011;15603;50.878;8.036;2023-04-06T07:47:56;12.18;;;4.68;;
28353;SDS011;15603;50.878;8.036;2023-04-06T07:50:25;11.88;;;3.70;;
28353;SDS011;15603;50.878;8.036;2023-04-06T07:52:53;14.52;;;4.38;;
28353;SDS011;15603;50.878;8.036;2023-04-06T07:55:21;17.25;;;5.40;;
28353;SDS011;15603;50.878;8.036;2023-04-06T07:57:48;7.95;;;4.18;;
28353;SDS011;15603;50.878;8.036;2023-04-06T08:00:15;12.57;;;5.05;;
28353;SDS011;15603;50.878;8.036;2023-04-06T08:02:42;9.23;;;3.83;;
28353;SDS011;15603;50.878;8.036;2023-04-06T08:05:09;15.02;;;5.05;;
28353;SDS011;15603;50.878;8.036;2023-04-06T08:07:36;11.20;;;4.22;;
28353;SDS011;15603;50.878;8.036;2023-04-06T08:10:03;17.50;;;5.30;;
28353;SDS011;15603;50.878;8.036;2023-04-06T08:12:31;10.88;;;4.53;;
28353;SDS011;15603;50.878;8.036;2023-04-06T08:14:59;13.73;;;5.18;;
28353;SDS011;15603;50.878;8.036;2023-04-06T08:17:27;11.98;;;5.03;;
28353;SDS011;15603;50.878;8.036;2023-04-06T08:19:57;21.05;;;5.63;;
28353;SDS011;15603;50.878;8.036;2023-04-06T08:22:24;16.35;;;5.55;;
28353;SDS011;15603;50.878;8.036;2023-04-06T08:24:51;17.02;;;5.72;;
28353;SDS011;15603;50.878;8.036;2023-04-06T08:27:18;13.88;;;5.90;;
28353;SDS011;15603;50.878;8.036;2023-04-06T08:29:45;13.25;;;6.07;;
28353;SDS011;15603;50.878;8.036;2023-04-06T08:32:12;19.08;;;5.50;;
28353;SDS011;15603;50.878;8.036;2023-04-06T08:34:39;14.65;;;6.03;;
28353;SDS011;15603;50.878;8.036;2023-04-06T08:37:06;18.02;;;6.53;;
28353;SDS011;15603;50.878;8.036;2023-04-06T08:39:33;14.88;;;7.07;;
28353;SDS011;15603;50.878;8.036;2023-04-06T08:42:00;17.30;;;6.30;;
28353;SDS011;15603;50.878;8.036;2023-04-06T08:44:30;20.42;;;6.80;;
28353;SDS011;15603;50.878;8.036;2023-04-06T08:46:59;15.55;;;6.85;;
28353;SDS011;15603;50.878;8.036;2023-04-06T08:49:27;19.77;;;6.75;;
28353;SDS011;15603;50.878;8.036;2023-04-06T08:51:55;16.95;;;7.10;;
28353;SDS011;15603;50.878;8.036;2023-04-06T08:54:22;15.18;;;6.78;;
28353;SDS011;15603;50.878;8.036;2023-04-06T08:56:49;13.90;;;6.95;;
28353;SDS011;15603;50.878;8.036;2023-04-06T08:59:17;16.00;;;7.10;;
28353;SDS011;15603;50.878;8.036;2023-04-06T09:01:44;24.75;;;7.82;;
28353;SDS011;15603;50.878;8.036;2023-04-06T09:04:12;18.52;;;8.38;;
28353;SDS011;15603;50.878;8.036;2023-04-06T09:06:41;20.83;;;8.38;;
28353;SDS011;15603;50.878;8.036;2023-04-06T09:09:08;23.83;;;9.13;;
28353;SDS011;15603;50.878;8.036;2023-04-06T09:11:48;19.15;;;8.70;;
28353;SDS011;15603;50.878;8.036;2023-04-06T09:14:17;17.60;;;9.02;;
28353;SDS011;15603;50.878;8.036;2023-04-06T09:20:04;21.35;;;7.93;;
28353;SDS011;15603;50.878;8.036;2023-04-06T09:22:35;16.00;;;7.95;;
28353;SDS011;15603;50.878;8.036;2023-04-06T09:25:08;20.13;;;8.25;;
28353;SDS011;15603;50.878;8.036;2023-04-06T09:27:36;22.42;;;8.85;;
28353;SDS011;15603;50.878;8.036;2023-04-06T09:30:08;19.08;;;7.80;;
28353;SDS011;15603;50.878;8.036;2023-04-06T09:32:50;18.02;;;7.82;;
28353;SDS011;15603;50.878;8.036;2023-04-06T09:35:19;15.50;;;7.22;;
28353;SDS011;15603;50.878;8.036;2023-04-06T09:37:47;14.15;;;7.28;;
28353;SDS011;15603;50.878;8.036;2023-04-06T09:40:15;15.95;;;6.53;;
28353;SDS011;15603;50.878;8.036;2023-04-06T09:42:48;15.00;;;6.80;;
28353;SDS011;15603;50.878;8.036;2023-04-06T09:45:18;19.35;;;6.57;;
28353;SDS011;15603;50.878;8.036;2023-04-06T09:47:46;16.52;;;7.05;;
28353;SDS011;15603;50.878;8.036;2023-04-06T09:50:14;13.13;;;6.30;;
28353;SDS011;15603;50.878;8.036;2023-04-06T09:52:46;18.65;;;7.05;;
28353;SDS011;15603;50.878;8.036;2023-04-06T09:55:18;16.13;;;7.07;;
28353;SDS011;15603;50.878;8.036;2023-04-06T09:57:52;16.00;;;7.10;;
28353;SDS011;15603;50.878;8.036;2023-04-06T10:00:25;16.13;;;6.60;;
28353;SDS011;15603;50.878;8.036;2023-04-06T10:08:07;16.20;;;7.05;;
28353;SDS011;15603;50.878;8.036;2023-04-06T10:10:37;17.50;;;6.82;;
28353;SDS011;15603;50.878;8.036;2023-04-06T10:13:05;17.08;;;6.97;;
28353;SDS011;15603;50.878;8.036;2023-04-06T10:15:32;17.92;;;7.70;;
28353;SDS011;15603;50.878;8.036;2023-04-06T10:18:00;12.57;;;5.88;;
28353;SDS011;15603;50.878;8.036;2023-04-06T10:20:35;22.17;;;6.68;;
28353;SDS011;15603;50.878;8.036;2023-04-06T10:23:17;18.27;;;7.10;;
28353;SDS011;15603;50.878;8.036;2023-04-06T10:26:14;18.88;;;6.95;;
28353;SDS011;15603;50.878;8.036;2023-04-06T10:31:12;17.60;;;6.57;;
28353;SDS011;15603;50.878;8.036;2023-04-06T10:33:39;14.50;;;6.40;;
28353;SDS011;15603;50.878;8.036;2023-04-06T10:36:14;15.88;;;6.88;;
28353;SDS011;15603;50.878;8.036;2023-04-06T10:38:53;17.33;;;5.28;;
28353;SDS011;15603;50.878;8.036;2023-04-06T10:41:31;11.90;;;5.47;;
28353;SDS011;15603;50.878;8.036;2023-04-06T10:44:02;14.25;;;5.75;;
28353;SDS011;15603;50.878;8.036;2023-04-06T10:46:30;15.25;;;6.00;;
28353;SDS011;15603;50.878;8.036;2023-04-06T10:48:58;14.45;;;5.13;;
28353;SDS011;15603;50.878;8.036;2023-04-06T10:51:38;13.02;;;6.35;;
28353;SDS011;15603;50.878;8.036;2023-04-06T10:54:06;12.73;;;6.07;;
28353;SDS011;15603;50.878;8.036;2023-04-06T10:56:36;14.93;;;6.20;;
28353;SDS011;15603;50.878;8.036;2023-04-06T10:59:03;13.90;;;6.22;;
28353;SDS011;15603;50.878;8.036;2023-04-06T11:01:32;10.45;;;5.60;;
28353;SDS011;15603;50.878;8.036;2023-04-06T11:03:59;14.90;;;5.68;;
28353;SDS011;15603;50.878;8.036;2023-04-06T11:06:27;20.67;;;6.13;;
28353;SDS011;15603;50.878;8.036;2023-04-06T11:08:57;27.60;;;7.65;;
28353;SDS011;15603;50.878;8.036;2023-04-06T11:11:25;15.02;;;5.32;;
28353;SDS011;15603;50.878;8.036;2023-04-06T11:13:54;14.43;;;5.55;;
28353;SDS011;15603;50.878;8.036;2023-04-06T11:16:26;13.85;;;5.95;;
28353;SDS011;15603;50.878;8.036;2023-04-06T11:18:58;18.30;;;6.53;;
28353;SDS011;15603;50.878;8.036;2023-04-06T11:24:33;14.63;;;6.43;;
28353;SDS011;15603;50.878;8.036;2023-04-06T11:27:00;21.73;;;7.03;;
28353;SDS011;15603;50.878;8.036;2023-04-06T11:29:31;18.55;;;5.88;;
28353;SDS011;15603;50.878;8.036;2023-04-06T11:32:05;22.80;;;5.65;;
28353;SDS011;15603;50.878;8.036;2023-04-06T11:34:33;16.27;;;5.57;;
28353;SDS011;15603;50.878;8.036;2023-04-06T11:37:07;14.85;;;5.90;;
28353;SDS011;15603;50.878;8.036;2023-04-06T11:39:40;16.13;;;6.57;;
28353;SDS011;15603;50.878;8.036;2023-04-06T11:42:10;13.00;;;5.85;;
28353;SDS011;15603;50.878;8.036;2023-04-06T11:47:13;15.23;;;6.25;;
28353;SDS011;15603;50.878;8.036;2023-04-06T11:49:41;19.80;;;7.13;;
28353;SDS011;15603;50.878;8.036;2023-04-06T11:54:47;17.58;;;7.03;;
28353;SDS011;15603;50.878;8.036;2023-04-06T11:57:15;14.23;;;7.15;;
28353;SDS011;15603;50.878;8.036;2023-04-06T11:59:43;21.42;;;8.40;;
28353;SDS011;15603;50.878;8.036;2023-04-06T12:02:11;16.52;;;7.85;;
28353;SDS011;15603;50.878;8.036;2023-04-06T12:04:38;17.60;;;7.78;;
28353;SDS011;15603;50.878;8.036;2023-04-06T12:07:06;21.33;;;7.72;;
28353;SDS011;15603;50.878;8.036;2023-04-06T12:09:33;14.18;;;6.53;;
28353;SDS011;15603;50.878;8.036;2023-04-06T12:12:01;18.50;;;6.63;;
28353;SDS011;15603;50.878;8.036;2023-04-06T12:14:28;20.15;;;7.93;;
28353;SDS011;15603;50.878;8.036;2023-04-06T12:16:57;17.33;;;7.43;;
28353;SDS011;15603;50.878;8.036;2023-04-06T12:19:25;18.17;;;6.78;;
28353;SDS011;15603;50.878;8.036;2023-04-06T12:21:53;14.32;;;6.13;;
28353;SDS011;15603;50.878;8.036;2023-04-06T12:24:21;20.92;;;7.53;;
28353;SDS011;15603;50.878;8.036;2023-04-06T12:26:48;17.30;;;7.47;;
28353;SDS011;15603;50.878;8.036;2023-04-06T12:29:25;14.23;;;7.15;;
28353;SDS011;15603;50.878;8.036;2023-04-06T12:31:52;16.38;;;6.22;;
28353;SDS011;15603;50.878;8.036;2023-04-06T12:34:20;16.38;;;5.93;;
28353;SDS011;15603;50.878;8.036;2023-04-06T12:36:47;12.95;;;6.75;;
28353;SDS011;15603;50.878;8.036;2023-04-06T12:39:14;16.33;;;7.68;;
28353;SDS011;15603;50.878;8.036;2023-04-06T12:41:46;14.90;;;7.32;;
28353;SDS011;15603;50.878;8.036;2023-04-06T12:44:13;16.88;;;6.68;;
28353;SDS011;15603;50.878;8.036;2023-04-06T12:46:40;19.23;;;7.57;;
28353;SDS011;15603;50.878;8.036;2023-04-06T12:49:07;18.75;;;7.00;;
28353;SDS011;15603;50.878;8.036;2023-04-06T12:51:34;14.60;;;6.63;;
28353;SDS011;15603;50.878;8.036;2023-04-06T12:54:01;15.05;;;6.68;;
28353;SDS011;15603;50.878;8.036;2023-04-06T12:56:28;15.07;;;7.45;;
28353;SDS011;15603;50.878;8.036;2023-04-06T12:58:55;17.83;;;7.78;;
28353;SDS011;15603;50.878;8.036;2023-04-06T13:01:23;20.38;;;8.13;;
28353;SDS011;15603;50.878;8.036;2023-04-06T13:03:50;20.25;;;7.25;;
28353;SDS011;15603;50.878;8.036;2023-04-06T13:06:18;14.77;;;6.45;;
28353;SDS011;15603;50.878;8.036;2023-04-06T13:08:45;12.68;;;5.65;;
28353;SDS011;15603;50.878;8.036;2023-04-06T13:11:14;10.38;;;5.75;;
28353;SDS011;15603;50.878;8.036;2023-04-06T13:13:41;19.60;;;5.78;;
28353;SDS011;15603;50.878;8.036;2023-04-06T13:16:08;23.23;;;7.57;;
28353;SDS011;15603;50.878;8.036;2023-04-06T13:18:36;12.10;;;6.65;;
28353;SDS011;15603;50.878;8.036;2023-04-06T13:21:06;23.25;;;6.47;;
28353;SDS011;15603;50.878;8.036;2023-04-06T13:23:34;13.38;;;5.90;;
28353;SDS011;15603;50.878;8.036;2023-04-06T13:26:02;17.30;;;5.97;;
28353;SDS011;15603;50.878;8.036;2023-04-06T13:28:32;14.40;;;5.75;;
28353;SDS011;15603;50.878;8.036;2023-04-06T13:31:00;24.15;;;6.65;;
28353;SDS011;15603;50.878;8.036;2023-04-06T13:33:29;19.98;;;6.53;;
28353;SDS011;15603;50.878;8.036;2023-04-06T13:35:57;13.73;;;6.28;;
28353;SDS011;15603;50.878;8.036;2023-04-06T13:38:25;16.83;;;7.28;;
28353;SDS011;15603;50.878;8.036;2023-04-06T13:40:52;11.18;;;5.90;;
28353;SDS011;15603;50.878;8.036;2023-04-06T13:43:19;14.43;;;6.53;;
28353;SDS011;15603;50.878;8.036;2023-04-06T13:45:50;11.35;;;5.35;;
28353;SDS011;15603;50.878;8.036;2023-04-06T13:48:20;13.55;;;7.55;;
28353;SDS011;15603;50.878;8.036;2023-04-06T13:50:47;13.32;;;5.88;;
28353;SDS011;15603;50.878;8.036;2023-04-06T13:53:15;11.35;;;5.78;;
28353;SDS011;15603;50.878;8.036;2023-04-06T13:55:42;17.00;;;6.32;;
28353;SDS011;15603;50.878;8.036;2023-04-06T13:58:09;13.73;;;6.95;;
28353;SDS011;15603;50.878;8.036;2023-04-06T14:00:36;18.92;;;6.82;;
28353;SDS011;15603;50.878;8.036;2023-04-06T14:03:03;9.38;;;4.75;;
28353;SDS011;15603;50.878;8.036;2023-04-06T14:05:32;13.63;;;5.97;;
28353;SDS011;15603;50.878;8.036;2023-04-06T14:08:00;12.55;;;6.22;;
28353;SDS011;15603;50.878;8.036;2023-04-06T14:10:27;13.48;;;6.63;;
28353;SDS011;15603;50.878;8.036;2023-04-06T14:12:55;13.15;;;6.57;;
28353;SDS011;15603;50.878;8.036;2023-04-06T14:15:22;18.15;;;6.68;;
28353;SDS011;15603;50.878;8.036;2023-04-06T14:17:50;10.30;;;5.70;;
28353;SDS011;15603;50.878;8.036;2023-04-06T14:20:18;14.65;;;6.65;;
28353;SDS011;15603;50.878;8.036;2023-04-06T14:22:46;16.30;;;6.28;;
28353;SDS011;15603;50.878;8.036;2023-04-06T14:25:13;15.70;;;6.22;;
28353;SDS011;15603;50.878;8.036;2023-04-06T14:27:42;12.60;;;6.90;;
28353;SDS011;15603;50.878;8.036;2023-04-06T14:30:09;13.07;;;6.30;;
28353;SDS011;15603;50.878;8.036;2023-04-06T14:32:37;15.48;;;6.35;;
28353;SDS011;15603;50.878;8.036;2023-04-06T14:35:04;13.13;;;4.53;;
28353;SDS011;15603;50.878;8.036;2023-04-06T14:37:34;9.77;;;4.78;;
28353;SDS011;15603;50.878;8.036;2023-04-06T14:40:01;9.40;;;4.78;;
28353;SDS011;15603;50.878;8.036;2023-04-06T14:42:29;9.05;;;4.72;;
28353;SDS011;15603;50.878;8.036;2023-04-06T14:44:56;15.80;;;5.85;;
28353;SDS011;15603;50.878;8.036;2023-04-06T14:47:25;9.23;;;5.22;;
28353;SDS011;15603;50.878;8.036;2023-04-06T14:49:52;11.25;;;5.03;;
28353;SDS011;15603;50.878;8.036;2023-04-06T14:52:20;18.25;;;5.72;;
28353;SDS011;15603;50.878;8.036;2023-04-06T14:54:47;10.10;;;5.40;;
28353;SDS011;15603;50.878;8.036;2023-04-06T14:57:14;12.43;;;4.90;;
28353;SDS011;15603;50.878;8.036;2023-04-06T14:59:41;14.50;;;5.43;;
28353;SDS011;15603;50.878;8.036;2023-04-06T15:02:08;10.15;;;4.55;;
28353;SDS011;15603;50.878;8.036;2023-04-06T15:04:35;16.13;;;5.13;;
28353;SDS011;15603;50.878;8.036;2023-04-06T15:07:03;16.17;;;4.80;;
28353;SDS011;15603;50.878;8.036;2023-04-06T15:09:30;10.85;;;4.93;;